Time;durP1;ratioP1;P1;durP2;ratioP2;P2;SDS_P1;SDS_P2;PMS_P1;PMS_P2;Temp;Humidity;BMP_temperature;BMP_pressure;BME280_temperature;BME280_humidity;BME280_pressure;Samples;Min_cycle;Max_cycle;Signal;HPM_P1;HPM_P2
2023/06/04 00:01:11;;;;;;;7.25;5.53;;;;;;;15.50;100.00;95779.81;4870512;29;20080;-88
2023/06/04 00:03:36;;;;;;;8.75;6.85;;;;;;;15.47;100.00;95785.38;4869969;29;20107;-90
2023/06/04 00:06:02;;;;;;;4.78;4.47;;;;;;;15.36;100.00;95776.19;4870576;29;20167;-87
2023/06/04 00:08:27;;;;;;;5.82;5.38;;;;;;;15.38;100.00;95762.97;4868302;29;20820;-87
2023/06/04 00:10:53;;;;;;;5.80;5.40;;;;;;;15.44;100.00;95785.75;4870680;29;20056;-89
2023/06/04 00:13:18;;;;;;;7.63;5.47;;;;;;;15.39;100.00;95798.50;4868932;29;20407;-87
2023/06/04 00:15:44;;;;;;;6.95;6.45;;;;;;;15.39;100.00;95817.59;4869072;29;20418;-87
2023/06/04 00:18:10;;;;;;;8.80;6.32;;;;;;;15.26;100.00;95818.22;4868075;29;20036;-88
2023/06/04 00:20:37;;;;;;;6.35;5.85;;;;;;;15.35;100.00;95823.38;4869396;29;20037;-87
2023/06/04 00:23:02;;;;;;;5.20;4.80;;;;;;;15.28;100.00;95826.66;4852618;29;20037;-88
2023/06/04 00:25:28;;;;;;;6.93;5.10;;;;;;;15.32;100.00;95827.13;4866593;29;20460;-88
2023/06/04 00:27:53;;;;;;;7.15;5.82;;;;;;;15.13;100.00;95822.41;4880354;29;20053;-87
2023/06/04 00:30:19;;;;;;;5.95;5.45;;;;;;;15.22;100.00;95821.34;4885622;29;20053;-86
2023/06/04 00:32:46;;;;;;;5.53;5.22;;;;;;;15.22;100.00;95822.16;4874720;29;20037;-84
2023/06/04 00:35:12;;;;;;;9.13;5.07;;;;;;;15.27;100.00;95813.81;4874421;29;20535;-86
2023/06/04 00:37:37;;;;;;;6.70;4.88;;;;;;;15.23;100.00;95812.53;4853035;29;20085;-89
2023/06/04 00:40:03;;;;;;;7.82;6.95;;;;;;;15.29;100.00;95811.81;4869316;29;20045;-89
2023/06/04 00:42:28;;;;;;;6.65;5.85;;;;;;;15.36;100.00;95814.53;4868798;29;20118;-90
2023/06/04 00:44:57;;;;;;;6.50;5.63;;;;;;;15.31;100.00;95810.63;4873763;29;20040;-93
2023/06/04 00:47:22;;;;;;;7.10;5.63;;;;;;;15.38;100.00;95813.34;4886966;29;20032;-85
2023/06/04 00:49:48;;;;;;;6.60;5.93;;;;;;;15.32;100.00;95812.28;4854888;29;20283;-77
2023/06/04 00:52:14;;;;;;;6.25;5.82;;;;;;;15.26;100.00;95807.75;4853319;29;20505;-79
2023/06/04 00:54:40;;;;;;;5.45;4.97;;;;;;;15.23;100.00;95813.34;4870081;29;20103;-79
2023/06/04 00:57:06;;;;;;;6.45;6.05;;;;;;;15.39;100.00;95801.94;4886171;29;20582;-82
2023/06/04 00:59:33;;;;;;;7.45;6.28;;;;;;;15.38;100.00;95792.47;4854264;29;20020;-82
2023/06/04 01:02:19;;;;;;;8.52;7.32;;;;;;;15.42;100.00;95795.53;4886886;29;20135;-83
2023/06/04 01:05:10;;;;;;;8.82;7.90;;;;;;;15.34;100.00;95809.50;4885081;29;20063;-83
2023/06/04 01:07:36;;;;;;;5.97;5.53;;;;;;;15.22;100.00;95824.75;4870324;29;20706;-82
2023/06/04 01:10:03;;;;;;;5.10;4.70;;;;;;;15.18;100.00;95812.25;4868835;29;20066;-85
2023/06/04 01:12:28;;;;;;;4.93;4.40;;;;;;;15.37;100.00;95792.66;4886287;29;20100;-85
2023/06/04 01:14:53;;;;;;;5.47;5.07;;;;;;;15.37;100.00;95772.59;4863156;29;20032;-86
2023/06/04 01:17:36;;;;;;;4.97;4.55;;;;;;;15.38;100.00;95755.91;4869017;29;20032;-84
2023/06/04 01:20:20;;;;;;;6.53;6.03;;;;;;;15.25;100.00;95766.97;4870885;29;20060;-82
2023/06/04 01:22:54;;;;;;;5.95;4.90;;;;;;;15.36;100.00;95778.78;4884916;29;20036;-84
2023/06/04 01:25:23;;;;;;;5.72;5.20;;;;;;;15.28;100.00;95794.56;4886405;29;20035;-85
2023/06/04 01:27:52;;;;;;;6.15;5.53;;;;;;;15.23;100.00;95791.66;4885778;29;20056;-84
2023/06/04 01:30:20;;;;;;;5.72;5.32;;;;;;;15.31;100.00;95792.38;4885183;29;20044;-83
2023/06/04 01:32:46;;;;;;;5.13;4.63;;;;;;;15.20;100.00;95789.41;4869683;29;20028;-85
2023/06/04 01:35:12;;;;;;;6.03;5.53;;;;;;;15.38;100.00;95805.50;4868189;29;20033;-85
2023/06/04 01:37:37;;;;;;;5.20;4.70;;;;;;;15.17;100.00;95803.63;4869999;29;20023;-84
2023/06/04 01:40:05;;;;;;;5.57;5.00;;;;;;;15.30;100.00;95809.03;4884811;29;20024;-86
2023/06/04 01:42:31;;;;;;;5.70;5.18;;;;;;;15.24;100.00;95814.16;4886362;29;20083;-87
2023/06/04 01:44:56;;;;;;;9.88;5.38;;;;;;;15.37;100.00;95816.97;4869195;29;20032;-86
2023/06/04 01:47:22;;;;;;;5.65;5.00;;;;;;;15.35;100.00;95829.38;4885663;29;20192;-87
2023/06/04 01:49:47;;;;;;;6.07;5.45;;;;;;;15.37;100.00;95837.03;4886569;29;20080;-85
2023/06/04 01:52:12;;;;;;;7.35;5.90;;;;;;;15.13;100.00;95830.22;4885145;29;20120;-87
2023/06/04 01:54:38;;;;;;;6.53;5.60;;;;;;;15.38;100.00;95843.88;4886838;29;20091;-86
2023/06/04 01:57:05;;;;;;;6.85;6.25;;;;;;;15.30;100.00;95842.16;4884964;29;20024;-86
2023/06/04 01:59:31;;;;;;;7.10;6.50;;;;;;;15.40;100.00;95852.34;4869802;29;20060;-85
2023/06/04 02:01:57;;;;;;;7.38;6.68;;;;;;;15.07;100.00;95836.97;4885630;29;20021;-86
2023/06/04 02:04:23;;;;;;;8.30;6.30;;;;;;;15.28;100.00;95857.97;4886584;29;20637;-87
2023/06/04 02:06:50;;;;;;;8.25;6.18;;;;;;;15.32;100.00;95855.81;4886985;29;20040;-86
2023/06/04 02:09:15;;;;;;;7.07;6.43;;;;;;;15.20;100.00;95845.00;4885873;29;20039;-88
2023/06/04 02:11:41;;;;;;;9.13;7.15;;;;;;;15.32;100.00;95858.44;4887085;29;20029;-85
2023/06/04 02:14:06;;;;;;;9.82;8.93;;;;;;;15.34;100.00;95855.66;4868522;29;20514;-87
2023/06/04 02:16:32;;;;;;;11.10;10.07;;;;;;;15.39;100.00;95853.31;4874745;29;20562;-87
2023/06/04 02:18:58;;;;;;;11.27;8.07;;;;;;;15.36;100.00;95849.28;4872354;29;20028;-85
2023/06/04 02:21:24;;;;;;;9.32;8.30;;;;;;;15.41;100.00;95846.13;4886686;29;20573;-86
2023/06/04 02:23:50;;;;;;;11.15;8.02;;;;;;;15.46;100.00;95839.38;4883291;29;20039;-86
2023/06/04 02:26:15;;;;;;;11.77;10.30;;;;;;;15.39;100.00;95841.09;4877735;29;20396;-86
2023/06/04 02:28:41;;;;;;;13.25;11.10;;;;;;;15.47;100.00;95837.59;4889526;29;20045;-84
2023/06/04 02:31:07;;;;;;;12.60;10.68;;;;;;;15.42;100.00;95843.34;4887896;29;20538;-83
2023/06/04 02:33:32;;;;;;;12.20;11.00;;;;;;;15.47;100.00;95851.47;4889732;29;20119;-84
2023/06/04 02:35:58;;;;;;;11.95;10.60;;;;;;;15.40;100.00;95854.94;4857643;29;20545;-83
2023/06/04 02:38:23;;;;;;;13.30;11.90;;;;;;;15.48;100.00;95868.75;4889538;29;20067;-83
2023/06/04 02:40:48;;;;;;;11.93;10.73;;;;;;;15.46;100.00;95869.91;4888138;29;20025;-83
2023/06/04 02:43:15;;;;;;;9.05;8.18;;;;;;;15.43;100.00;95876.28;4863627;29;20507;-83
2023/06/04 02:45:40;;;;;;;11.00;10.00;;;;;;;15.29;100.00;95880.50;4884399;29;20048;-83
2023/06/04 02:48:06;;;;;;;7.43;6.72;;;;;;;15.32;100.00;95894.97;4888127;29;20028;-82
2023/06/04 02:50:31;;;;;;;6.18;5.60;;;;;;;15.42;100.00;95881.69;4889475;29;20029;-83
2023/06/04 02:52:57;;;;;;;5.70;5.30;;;;;;;15.45;100.00;95878.72;4870615;29;20190;-84
2023/06/04 02:55:22;;;;;;;6.38;5.97;;;;;;;15.46;100.00;95873.34;4889686;29;20066;-83
2023/06/04 02:57:48;;;;;;;6.20;5.57;;;;;;;15.48;100.00;95875.78;4887455;29;20032;-82
2023/06/04 03:00:14;;;;;;;7.22;6.57;;;;;;;15.45;100.00;95884.75;4886525;29;20050;-83
2023/06/04 03:02:45;;;;;;;6.13;5.63;;;;;;;15.40;100.00;95884.50;4883252;29;20478;-84
2023/06/04 03:05:13;;;;;;;6.88;6.45;;;;;;;15.42;100.00;95887.72;4879110;29;20418;-83
2023/06/04 03:07:40;;;;;;;9.93;7.18;;;;;;;15.41;100.00;95890.53;4885069;29;20423;-84
2023/06/04 03:10:07;;;;;;;8.88;6.45;;;;;;;15.36;100.00;95893.66;4887120;29;20032;-84
2023/06/04 03:12:32;;;;;;;8.98;8.00;;;;;;;15.37;100.00;95897.06;4889269;29;20028;-84
2023/06/04 03:14:58;;;;;;;10.00;8.88;;;;;;;15.44;100.00;95895.38;4887483;29;20398;-82
2023/06/04 03:17:23;;;;;;;9.68;8.82;;;;;;;15.41;100.00;95903.56;4862425;29;20032;-82
2023/06/04 03:19:49;;;;;;;7.65;7.05;;;;;;;15.34;100.00;95902.66;4888039;29;20092;-82
2023/06/04 03:22:14;;;;;;;7.40;6.68;;;;;;;15.37;100.00;95902.31;4871030;29;20025;-83
2023/06/04 03:24:41;;;;;;;8.10;7.40;;;;;;;15.35;100.00;95901.69;4888672;29;20025;-84
2023/06/04 03:27:08;;;;;;;9.07;7.97;;;;;;;15.45;100.00;95913.47;4886705;29;20044;-82
2023/06/04 03:29:34;;;;;;;11.50;8.25;;;;;;;15.41;100.00;95914.03;4874869;29;20115;-82
2023/06/04 03:32:00;;;;;;;8.68;7.90;;;;;;;15.40;100.00;95915.00;4887101;29;20080;-82
2023/06/04 03:34:26;;;;;;;9.07;8.48;;;;;;;15.45;100.00;95925.72;4888363;29;20853;-79
2023/06/04 03:36:52;;;;;;;9.48;8.32;;;;;;;15.43;100.00;95925.09;4886533;29;20037;-81
2023/06/04 03:39:17;;;;;;;8.85;8.05;;;;;;;15.30;100.00;95923.88;4888583;29;20032;-79
2023/06/04 03:41:43;;;;;;;8.73;8.07;;;;;;;15.43;100.00;95919.88;4870873;29;20032;-78
2023/06/04 03:44:08;;;;;;;10.80;9.45;;;;;;;15.48;100.00;95923.59;4887397;29;20115;-79
2023/06/04 03:46:35;;;;;;;11.27;10.10;;;;;;;15.43;100.00;95923.28;4888402;29;20024;-78
2023/06/04 03:49:01;;;;;;;10.10;9.18;;;;;;;15.32;100.00;95924.50;4886833;29;20172;-78
2023/06/04 03:51:26;;;;;;;8.73;8.07;;;;;;;15.42;100.00;95931.28;4888133;29;20367;-78
2023/06/04 03:53:52;;;;;;;11.77;9.77;;;;;;;15.43;100.00;95941.56;4886586;29;20032;-78
2023/06/04 03:56:17;;;;;;;11.15;10.05;;;;;;;15.51;100.00;95940.72;4888104;29;20024;-78
2023/06/04 03:58:43;;;;;;;10.55;9.65;;;;;;;15.53;100.00;95946.56;4886820;29;20519;-79
2023/06/04 04:01:10;;;;;;;11.40;10.30;;;;;;;15.60;100.00;95944.88;4888038;29;20025;-79
2023/06/04 04:03:36;;;;;;;11.48;10.57;;;;;;;15.49;100.00;95953.13;4871353;29;20063;-79
2023/06/04 04:06:02;;;;;;;13.45;12.23;;;;;;;15.56;100.00;95960.09;4886827;29;20550;-79
2023/06/04 04:08:31;;;;;;;12.75;11.35;;;;;;;15.58;100.00;95965.94;4870943;29;20128;-78
2023/06/04 04:10:57;;;;;;;11.00;10.00;;;;;;;15.66;100.00;95972.91;4885283;29;20028;-78
2023/06/04 04:13:22;;;;;;;12.30;10.25;;;;;;;15.69;100.00;95965.53;4884883;29;20044;-78
2023/06/04 04:15:52;;;;;;;10.38;9.57;;;;;;;15.75;100.00;95966.63;4878232;29;20334;-78
2023/06/04 04:18:20;;;;;;;9.02;8.25;;;;;;;15.79;100.00;95944.38;4879537;29;20575;-79
2023/06/04 04:20:46;;;;;;;11.88;11.05;;;;;;;15.91;100.00;95926.47;4885730;29;20422;-78
2023/06/04 04:23:12;;;;;;;11.73;10.55;;;;;;;16.02;100.00;95910.34;4885020;29;20451;-78
2023/06/04 04:25:38;;;;;;;11.05;10.10;;;;;;;16.10;100.00;95889.34;4885824;29;20039;-78
2023/06/04 04:28:06;;;;;;;10.77;9.75;;;;;;;16.09;100.00;95851.94;4875017;29;20053;-78
2023/06/04 04:30:35;;;;;;;9.27;7.95;;;;;;;16.18;100.00;95829.91;4881864;29;20055;-78
2023/06/04 04:33:01;;;;;;;10.38;9.50;;;;;;;16.20;100.00;95829.75;4884338;29;20342;-78
2023/06/04 04:35:28;;;;;;;10.82;9.82;;;;;;;16.25;100.00;95825.56;4885552;29;20033;-78
2023/06/04 04:37:54;;;;;;;8.93;8.27;;;;;;;16.21;100.00;95798.19;4885347;29;20040;-77
2023/06/04 04:40:20;;;;;;;9.45;8.52;;;;;;;16.22;100.00;95741.47;4868073;29;20447;-78
2023/06/04 04:42:46;;;;;;;9.02;8.43;;;;;;;16.25;100.00;95710.56;4885932;29;20040;-78
2023/06/04 04:45:11;;;;;;;9.60;8.82;;;;;;;16.29;100.00;95726.69;4884196;29;20044;-78
2023/06/04 04:47:37;;;;;;;8.45;7.57;;;;;;;16.33;100.00;95705.22;4884738;29;20028;-78
2023/06/04 04:50:03;;;;;;;7.45;6.90;;;;;;;16.30;100.00;95686.47;4867276;29;20028;-77
2023/06/04 04:52:28;;;;;;;7.25;6.65;;;;;;;16.37;100.00;95684.75;4885257;29;20028;-78
2023/06/04 04:54:55;;;;;;;10.40;7.20;;;;;;;16.38;100.00;95670.63;4867239;29;20630;-78
2023/06/04 04:57:22;;;;;;;8.00;7.30;;;;;;;16.44;100.00;95685.56;4868639;29;20498;-78
2023/06/04 04:59:48;;;;;;;9.15;8.40;;;;;;;16.46;100.00;95732.47;4868287;29;20368;-78
2023/06/04 05:02:13;;;;;;;11.88;10.48;;;;;;;16.55;100.00;95781.06;4884140;29;20036;-78
2023/06/04 05:04:39;;;;;;;9.95;9.15;;;;;;;16.57;100.00;95818.28;4885000;29;20028;-78
2023/06/04 05:07:04;;;;;;;12.48;11.48;;;;;;;16.55;100.00;95817.69;4866836;29;20047;-78
2023/06/04 05:09:30;;;;;;;11.80;10.85;;;;;;;16.47;100.00;95817.78;4885138;29;20096;-78
2023/06/04 05:11:55;;;;;;;8.98;8.38;;;;;;;16.48;100.00;95772.31;4885194;29;20095;-78
2023/06/04 05:14:21;;;;;;;8.50;7.75;;;;;;;16.57;100.00;95729.38;4886861;29;20447;-78
2023/06/04 05:16:48;;;;;;;7.40;6.90;;;;;;;16.80;100.00;95693.34;4872545;29;20033;-78
2023/06/04 05:19:14;;;;;;;7.93;7.13;;;;;;;16.87;100.00;95668.03;4886020;29;20047;-78
2023/06/04 05:21:39;;;;;;;8.55;7.85;;;;;;;16.88;100.00;95651.34;4874634;29;20033;-77
2023/06/04 05:24:05;;;;;;;7.10;6.55;;;;;;;17.00;100.00;95604.47;4884173;29;20530;-78
2023/06/04 05:26:30;;;;;;;9.00;7.30;;;;;;;17.18;100.00;95594.28;4869512;29;20032;-78
2023/06/04 05:28:55;;;;;;;6.85;6.20;;;;;;;17.16;100.00;95509.91;4867801;29;20028;-77
2023/06/04 05:31:21;;;;;;;6.38;5.88;;;;;;;17.38;100.00;95425.75;4885185;29;20036;-77
2023/06/04 05:33:47;;;;;;;7.85;6.22;;;;;;;17.77;100.00;95418.94;4866463;29;20028;-77
2023/06/04 05:36:13;;;;;;;9.20;7.07;;;;;;;18.01;100.00;95392.09;4884612;29;20411;-77
2023/06/04 05:38:39;;;;;;;6.30;5.70;;;;;;;18.35;100.00;95315.72;4884169;29;20032;-77
2023/06/04 05:41:04;;;;;;;6.35;5.35;;;;;;;18.69;100.00;95261.22;4883812;29;20043;-77
2023/06/04 05:43:29;;;;;;;7.57;5.35;;;;;;;18.87;100.00;95242.94;4884873;29;20037;-77
2023/06/04 05:45:55;;;;;;;5.00;4.60;;;;;;;18.95;100.00;95224.28;4882773;29;20035;-77
2023/06/04 05:48:20;;;;;;;6.15;5.55;;;;;;;19.05;100.00;95214.09;4868969;29;20036;-77
2023/06/04 05:50:47;;;;;;;10.07;4.97;;;;;;;18.97;100.00;95206.50;4883586;29;20430;-78
2023/06/04 05:53:13;;;;;;;5.88;4.72;;;;;;;19.18;100.00;95192.97;4884605;29;20618;-78
2023/06/04 05:55:38;;;;;;;6.07;5.53;;;;;;;18.87;100.00;95178.13;4883557;29;20080;-79
2023/06/04 05:58:04;;;;;;;6.70;5.15;;;;;;;18.57;100.00;95173.72;4865148;29;20494;-82
2023/06/04 06:00:29;;;;;;;6.57;5.00;;;;;;;18.57;100.00;95234.06;4862497;29;20043;-82
2023/06/04 06:02:55;;;;;;;5.57;4.97;;;;;;;18.87;100.00;95237.69;4853945;29;20067;-84
2023/06/04 06:05:20;;;;;;;5.75;5.10;;;;;;;19.15;100.00;95203.09;4869071;29;20033;-82
2023/06/04 06:07:46;;;;;;;5.60;4.03;;;;;;;19.31;100.00;95182.31;4883330;29;20028;-84
2023/06/04 06:10:13;;;;;;;4.78;4.45;;;;;;;19.50;100.00;95200.72;4850892;29;20510;-85
2023/06/04 06:12:38;;;;;;;6.88;4.65;;;;;;;19.50;100.00;95204.16;4853465;29;20032;-84
2023/06/04 06:15:05;;;;;;;6.57;4.70;;;;;;;19.54;100.00;95207.97;4862797;29;20101;-85
2023/06/04 06:17:31;;;;;;;6.53;4.15;;;;;;;19.36;100.00;95187.69;4867640;29;20044;-84
2023/06/04 06:19:56;;;;;;;4.93;4.40;;;;;;;19.62;100.00;95235.78;4868326;29;20422;-85
2023/06/04 06:22:22;;;;;;;6.93;4.93;;;;;;;19.45;100.00;95257.41;4856771;29;20419;-83
2023/06/04 06:24:50;;;;;;;5.50;4.10;;;;;;;19.44;100.00;95244.47;4870808;29;20092;-85
2023/06/04 06:27:16;;;;;;;10.73;4.73;;;;;;;19.38;100.00;95250.56;4873348;29;20048;-84
2023/06/04 06:29:42;;;;;;;6.40;4.40;;;;;;;18.95;100.00;95221.66;4861853;29;20743;-83
2023/06/04 06:32:08;;;;;;;4.88;4.43;;;;;;;18.84;100.00;95225.00;5209902;23;20084;-85
2023/06/04 06:34:33;;;;;;;6.03;4.65;;;;;;;19.12;100.00;95254.22;4887387;29;20522;-79
2023/06/04 06:37:00;;;;;;;7.32;4.65;;;;;;;19.26;100.00;95266.25;4891266;29;20383;-81
2023/06/04 06:39:25;;;;;;;8.98;4.70;;;;;;;19.13;100.00;95242.72;4881077;29;20486;-81
2023/06/04 06:41:50;;;;;;;5.13;4.68;;;;;;;18.88;100.00;95249.78;4888919;29;20088;-81
2023/06/04 06:44:16;;;;;;;6.53;4.68;;;;;;;19.11;100.00;95257.88;4887967;29;20029;-81
2023/06/04 06:46:41;;;;;;;6.53;5.00;;;;;;;19.08;100.00;95257.50;4888354;29;20040;-80
2023/06/04 06:49:08;;;;;;;6.57;4.25;;;;;;;19.17;100.00;95258.84;4888053;29;20061;-81
2023/06/04 06:51:33;;;;;;;4.30;4.00;;;;;;;19.04;100.00;95262.38;4888887;29;20876;-81
2023/06/04 06:53:59;;;;;;;9.23;4.75;;;;;;;19.02;100.00;95264.41;4889215;29;20029;-80
2023/06/04 06:56:24;;;;;;;10.75;4.85;;;;;;;18.95;100.00;95276.78;4895950;29;20482;-82
2023/06/04 06:58:51;;;;;;;6.25;4.50;;;;;;;19.11;100.00;95271.00;4873201;29;20042;-81
2023/06/04 07:01:16;;;;;;;5.00;4.60;;;;;;;19.15;100.00;95266.13;4891285;29;20047;-80
2023/06/04 07:03:42;;;;;;;6.50;4.78;;;;;;;19.18;100.00;95249.94;4891497;29;20029;-83
2023/06/04 07:06:07;;;;;;;4.90;4.05;;;;;;;19.19;100.00;95220.84;4873669;29;20056;-84
2023/06/04 07:08:33;;;;;;;4.82;4.35;;;;;;;19.09;100.00;95204.78;4887106;29;20024;-85
2023/06/04 07:10:59;;;;;;;6.45;5.20;;;;;;;19.21;100.00;95239.81;4886602;29;20115;-83
2023/06/04 07:13:25;;;;;;;6.05;4.90;;;;;;;19.21;100.00;95283.66;4890872;29;20042;-84
2023/06/04 07:15:50;;;;;;;5.32;4.35;;;;;;;19.24;100.00;95228.84;4887358;29;20037;-87
2023/06/04 07:18:16;;;;;;;10.38;5.15;;;;;;;19.40;100.00;95223.06;4880880;29;20052;-86
2023/06/04 07:20:41;;;;;;;18.85;6.18;;;;;;;19.26;100.00;95226.03;4905823;29;20024;-86
2023/06/04 07:23:07;;;;;;;10.00;5.10;;;;;;;19.23;100.00;95237.75;4875980;29;20357;-86
2023/06/04 07:25:33;;;;;;;7.65;5.65;;;;;;;19.36;100.00;95237.63;4866346;29;20079;-83
2023/06/04 07:27:58;;;;;;;7.22;5.00;;;;;;;19.22;100.00;95223.03;4884084;29;20051;-89
2023/06/04 07:30:25;;;;;;;5.70;5.05;;;;;;;19.19;100.00;95218.22;4877170;29;20025;-90
2023/06/04 07:32:50;;;;;;;5.43;4.63;;;;;;;19.17;100.00;95254.38;4865967;29;20044;-90
2023/06/04 07:35:16;;;;;;;15.48;8.38;;;;;;;19.28;100.00;95258.13;4884437;29;20775;-86
2023/06/04 07:37:44;;;;;;;7.95;4.82;;;;;;;19.15;100.00;95237.22;4880025;29;20037;-84
2023/06/04 07:40:10;;;;;;;7.75;5.50;;;;;;;19.13;100.00;95247.97;4853122;29;20112;-83
2023/06/04 07:42:36;;;;;;;5.40;4.95;;;;;;;19.51;100.00;95257.53;4871439;29;20060;-85
2023/06/04 07:45:02;;;;;;;8.68;4.25;;;;;;;19.65;100.00;95236.13;4863799;29;20127;-87
2023/06/04 07:47:27;;;;;;;8.60;4.45;;;;;;;19.70;100.00;95227.59;4887606;29;20107;-86
2023/06/04 07:49:53;;;;;;;5.47;4.53;;;;;;;19.78;100.00;95219.41;4857343;29;20192;-88
2023/06/04 07:52:18;;;;;;;4.90;4.60;;;;;;;19.77;100.00;95233.59;4882616;29;20033;-90
2023/06/04 07:54:44;;;;;;;5.72;4.43;;;;;;;19.55;100.00;95227.16;4883318;29;20454;-89
2023/06/04 07:57:10;;;;;;;5.00;4.50;;;;;;;18.93;100.00;95192.19;4867042;29;20083;-86
2023/06/04 07:59:35;;;;;;;6.25;4.13;;;;;;;19.45;100.00;95204.84;4886724;29;20040;-92
2023/06/04 08:02:01;;;;;;;5.25;4.43;;;;;;;19.56;100.00;95210.34;4876652;29;20519;-90
2023/06/04 08:04:27;;;;;;;4.68;4.15;;;;;;;19.41;100.00;95190.53;4865174;29;20494;-92
2023/06/04 08:06:52;;;;;;;7.88;4.25;;;;;;;19.58;100.00;95182.88;4857957;29;20033;-94
2023/06/04 08:09:18;;;;;;;4.57;4.18;;;;;;;19.42;100.00;95175.56;4853242;29;20052;-91
2023/06/04 08:11:44;;;;;;;7.05;4.28;;;;;;;19.57;100.00;95168.09;4876741;29;20075;-88
2023/06/04 08:14:11;;;;;;;5.88;3.92;;;;;;;19.93;100.00;95168.06;4868719;29;20487;-89
2023/06/04 08:16:36;;;;;;;4.70;4.18;;;;;;;20.38;100.00;95172.91;4855747;29;20769;-85
2023/06/04 08:19:02;;;;;;;5.78;4.30;;;;;;;20.81;100.00;95156.81;4852623;29;20031;-80
2023/06/04 08:21:28;;;;;;;5.70;4.32;;;;;;;20.40;100.00;95147.97;4875124;29;20036;-83
2023/06/04 08:23:54;;;;;;;5.28;4.78;;;;;;;20.50;100.00;95157.94;4858220;29;20426;-85
2023/06/04 08:26:20;;;;;;;8.40;5.15;;;;;;;20.96;100.00;95160.59;4902786;29;20044;-88
2023/06/04 08:28:48;;;;;;;9.00;4.30;;;;;;;21.26;100.00;95155.22;4859362;29;20051;-87
2023/06/04 08:31:13;;;;;;;6.27;4.20;;;;;;;21.23;100.00;95158.31;4873265;29;20035;-88
2023/06/04 08:33:39;;;;;;;4.82;4.38;;;;;;;20.69;100.00;95151.53;4881616;29;20421;-87
2023/06/04 08:36:04;;;;;;;5.82;4.70;;;;;;;20.70;100.00;95155.78;4898356;29;20115;-74
2023/06/04 08:38:30;;;;;;;5.28;4.30;;;;;;;20.46;100.00;95156.78;4902905;29;20032;-83
2023/06/04 08:40:59;;;;;;;7.68;4.70;;;;;;;20.21;100.00;95150.84;4914089;29;20111;-87
2023/06/04 08:43:24;;;;;;;;;;;;;;;20.52;100.00;95156.66;4891768;29;20032;-90
2023/06/04 08:45:53;;;;;;;5.10;4.50;;;;;;;20.77;100.00;95145.16;4875605;29;20375;-91
2023/06/04 08:48:19;;;;;;;6.07;4.47;;;;;;;20.29;100.00;95154.00;4890978;29;20091;-85
2023/06/04 08:50:47;;;;;;;4.93;4.25;;;;;;;20.13;100.00;95151.19;4863267;29;20036;-87
2023/06/04 08:53:15;;;;;;;4.87;4.43;;;;;;;20.08;100.00;95157.13;4890395;29;20082;-92
2023/06/04 08:55:41;;;;;;;5.53;4.15;;;;;;;20.31;100.00;95159.84;4887216;29;20047;-87
2023/06/04 08:58:08;;;;;;;5.20;4.70;;;;;;;20.33;100.00;95162.25;4870774;29;20481;-87
2023/06/04 09:00:33;;;;;;;5.72;4.10;;;;;;;20.43;100.00;95167.75;4882248;29;20020;-91
2023/06/04 09:03:03;;;;;;;5.72;4.70;;;;;;;20.59;100.00;95161.81;4886930;29;20032;-88
2023/06/04 09:05:29;;;;;;;6.55;3.90;;;;;;;20.94;100.00;95159.22;4874504;29;20039;-91
2023/06/04 09:07:55;;;;;;;4.95;4.40;;;;;;;21.11;100.00;95164.63;4878753;29;20430;-83
2023/06/04 09:10:23;;;;;;;5.22;4.72;;;;;;;20.86;100.00;95165.63;4888415;29;20128;-90
2023/06/04 09:12:49;;;;;;;6.45;5.82;;;;;;;20.71;100.00;95169.75;4892059;29;20035;-87
2023/06/04 09:15:14;;;;;;;7.00;5.38;;;;;;;20.74;100.00;95166.66;4871766;29;20692;-84
2023/06/04 09:17:40;;;;;;;8.13;5.93;;;;;;;20.98;100.00;95163.00;4901900;29;20759;-81
2023/06/04 09:20:08;;;;;;;8.98;5.70;;;;;;;21.24;100.00;95154.66;4883799;29;20099;-85
2023/06/04 09:22:37;;;;;;;10.15;6.40;;;;;;;20.93;100.00;95168.16;4870545;29;20024;-79
2023/06/04 09:25:09;;;;;;;7.63;6.50;;;;;;;20.99;100.00;95175.94;4890666;29;20020;-88
2023/06/04 09:27:39;;;;;;;7.40;6.47;;;;;;;20.98;100.00;95170.91;4907702;29;20099;-92
2023/06/04 09:30:06;;;;;;;7.90;6.53;;;;;;;21.19;100.00;95175.59;4885601;29;20035;-78
2023/06/04 09:32:31;;;;;;;6.43;5.82;;;;;;;21.06;100.00;95170.56;4890406;29;20490;-77
2023/06/04 09:35:26;;;;;;;8.35;6.13;;;;;;;21.28;100.00;95170.81;4914008;29;20032;-79
2023/06/04 09:37:55;;;;;;;6.85;6.20;;;;;;;20.88;100.00;95163.56;4884214;29;20031;-88
2023/06/04 09:40:22;;;;;;;6.60;6.10;;;;;;;20.73;100.00;95159.78;4894715;29;20034;-85
2023/06/04 09:42:54;;;;;;;9.20;6.13;;;;;;;21.16;100.00;95168.16;4887714;29;20115;-81
2023/06/04 09:45:31;;;;;;;7.30;6.57;;;;;;;20.92;100.00;95164.72;4887273;29;20032;-89
2023/06/04 09:47:57;;;;;;;10.13;6.70;;;;;;;20.80;100.00;95169.19;4887571;29;20072;-84
2023/06/04 09:50:27;;;;;;;7.80;7.03;;;;;;;21.15;100.00;95177.13;4869465;29;20123;-89
2023/06/04 09:52:53;;;;;;;6.35;5.85;;;;;;;21.02;100.00;95172.06;4889457;29;20039;-91
2023/06/04 09:55:20;;;;;;;6.30;5.80;;;;;;;20.64;100.00;95169.06;4888208;29;20502;-91
2023/06/04 09:57:52;;;;;;;5.97;5.57;;;;;;;21.13;100.00;95167.84;4886789;29;20031;-89
2023/06/04 10:00:23;;;;;;;6.60;6.03;;;;;;;21.13;100.00;95175.75;4888183;29;20035;-86
2023/06/04 10:02:49;;;;;;;6.20;5.78;;;;;;;21.12;100.00;95172.31;4887125;29;20095;-89
2023/06/04 10:05:15;;;;;;;6.60;5.97;;;;;;;21.24;100.00;95178.38;4905782;29;20069;-82
2023/06/04 10:07:45;;;;;;;10.88;5.95;;;;;;;21.20;100.00;95179.84;4887736;29;20024;-83
2023/06/04 10:10:16;;;;;;;6.30;5.90;;;;;;;21.05;100.00;95182.13;4884573;29;20025;-86
2023/06/04 10:12:41;;;;;;;6.80;6.10;;;;;;;21.21;100.00;95178.03;4877351;29;20066;-87
2023/06/04 10:15:13;;;;;;;6.30;5.78;;;;;;;20.76;100.00;95175.13;4869812;29;20055;-85
2023/06/04 10:17:39;;;;;;;6.57;6.00;;;;;;;21.08;100.00;95175.59;4888717;29;20055;-85
2023/06/04 10:20:05;;;;;;;6.22;5.72;;;;;;;21.36;100.00;95178.34;4886054;29;20498;-80
2023/06/04 10:22:31;;;;;;;6.88;6.18;;;;;;;20.47;100.00;95177.63;4872070;29;20040;-87
2023/06/04 10:24:58;;;;;;;7.20;6.50;;;;;;;20.66;100.00;95174.88;4879770;29;20040;-84
2023/06/04 10:27:24;;;;;;;8.77;6.70;;;;;;;20.32;100.00;95166.72;4887459;29;20099;-87
2023/06/04 10:29:50;;;;;;;6.50;5.90;;;;;;;20.50;100.00;95171.91;4887354;29;20043;-82
2023/06/04 10:32:17;;;;;;;6.72;5.82;;;;;;;20.54;100.00;95182.78;4903465;29;20056;-82
2023/06/04 10:34:42;;;;;;;11.15;6.40;;;;;;;20.72;100.00;95184.50;4872139;29;20123;-89
2023/06/04 10:37:20;;;;;;;7.28;6.57;;;;;;;20.56;100.00;95187.81;4870268;29;20116;-84
2023/06/04 10:39:51;;;;;;;6.95;6.25;;;;;;;20.50;100.00;95179.78;4875950;29;20115;-84
2023/06/04 10:42:18;;;;;;;7.63;6.93;;;;;;;20.65;100.00;95183.81;4886412;29;20036;-86
2023/06/04 10:44:48;;;;;;;9.63;6.53;;;;;;;20.41;100.00;95188.25;4869943;29;20047;-86
2023/06/04 10:47:26;;;;;;;6.82;6.32;;;;;;;20.36;100.00;95196.78;4889274;29;20040;-84
2023/06/04 10:49:53;;;;;;;7.75;6.75;;;;;;;20.44;100.00;95199.13;4904780;29;20510;-84
2023/06/04 10:52:19;;;;;;;7.40;6.88;;;;;;;20.48;100.00;95195.00;4889956;29;20418;-75
2023/06/04 10:54:46;;;;;;;8.77;6.97;;;;;;;20.05;100.00;95194.38;4905759;29;20117;-84
2023/06/04 10:57:16;;;;;;;7.43;6.78;;;;;;;20.14;100.00;95190.41;4891508;29;20032;-87
2023/06/04 10:59:53;;;;;;;8.15;7.18;;;;;;;20.42;100.00;95189.84;4873797;29;20028;-80
2023/06/04 11:02:18;;;;;;;7.38;6.80;;;;;;;20.54;100.00;95187.25;4873126;29;20032;-74
2023/06/04 11:04:44;;;;;;;8.63;6.97;;;;;;;20.50;100.00;95182.44;4907201;29;20043;-80
2023/06/04 11:07:09;;;;;;;8.38;7.10;;;;;;;20.40;100.00;95186.63;4884894;29;20545;-86
2023/06/04 11:09:36;;;;;;;8.05;7.35;;;;;;;20.33;100.00;95186.72;4886551;29;20478;-80
2023/06/04 11:12:03;;;;;;;7.88;7.15;;;;;;;20.21;100.00;95191.13;4899652;29;20024;-81
2023/06/04 11:14:29;;;;;;;8.02;7.53;;;;;;;20.17;100.00;95189.97;4890980;29;20036;-81
2023/06/04 11:16:55;;;;;;;8.27;7.43;;;;;;;19.71;100.00;95179.28;4889583;29;20102;-86
2023/06/04 11:19:20;;;;;;;9.13;7.30;;;;;;;20.26;100.00;95198.34;4873771;29;20056;-84
2023/06/04 11:21:45;;;;;;;7.72;7.13;;;;;;;20.41;100.00;95194.31;4874902;29;20127;-83